SCVD/ZAL METAR and TAF weather

Enter ICAO airport designator
Station Type Date Time Source
SCVD METAR 2019/04/21 22:00 UTC NOAA

SCVD 212200Z 25005KT 9999 BKN024 15/10 Q1018


Station Type Date Time Source
SCVD Decoded METAR 2019/04/21 22:00 UTC NOAA

Valdivia, Chile (SCVD) 39-37S 073-05W
Apr 21, 2019 - 06:00 PM EDT / 2019.04.21 2200 UTC
Wind: from the WSW (250 degrees) at 6 MPH (5 KT):0
Visibility: greater than 7 mile(s):0
Sky conditions: mostly cloudy
Temperature: 59 F (15 C)
Dew Point: 50 F (10 C)
Relative Humidity: 72%
Pressure (altimeter): 30.06 in. Hg (1018 hPa)
ob: SCVD 212200Z 25005KT 9999 BKN024 15/10 Q1018
cycle: 22

Station Type Date Time Source
SCVD TAF 2019/04/21 12:00 UTC NOAA

TAF SCVD 211029Z 2112/2124 VRB02KT 0500 FG OVC002 TN08/2112Z TX17/2119Z
BECMG 2113/2115 16004KT 5000 BR BKN012
BECMG 2116/2118 SCT020
TEMPO 2119/2113 00000KT CAVOK

Example: see airport list